sensor_id;sensor_type;location;lat;lon;timestamp;P1;durP1;ratioP1;P2;durP2;ratioP2
64842;SDS011;51310;52.198;5.422;2023-03-31T00:00:55;19.58;;;3.38;;
64842;SDS011;51310;52.198;5.422;2023-03-31T00:03:24;20.45;;;3.75;;
64842;SDS011;51310;52.198;5.422;2023-03-31T00:05:57;15.93;;;2.75;;
64842;SDS011;51310;52.198;5.422;2023-03-31T00:08:25;21.80;;;3.92;;
64842;SDS011;51310;52.198;5.422;2023-03-31T00:10:56;12.30;;;3.47;;
64842;SDS011;51310;52.198;5.422;2023-03-31T00:13:24;20.92;;;4.20;;
64842;SDS011;51310;52.198;5.422;2023-03-31T00:15:55;16.30;;;3.70;;
64842;SDS011;51310;52.198;5.422;2023-03-31T00:18:32;13.25;;;3.70;;
64842;SDS011;51310;52.198;5.422;2023-03-31T00:21:12;19.67;;;3.25;;
64842;SDS011;51310;52.198;5.422;2023-03-31T00:23:49;12.53;;;3.87;;
64842;SDS011;51310;52.198;5.422;2023-03-31T00:26:18;19.67;;;3.97;;
64842;SDS011;51310;52.198;5.422;2023-03-31T00:28:46;16.23;;;3.33;;
64842;SDS011;51310;52.198;5.422;2023-03-31T00:31:15;12.82;;;3.25;;
64842;SDS011;51310;52.198;5.422;2023-03-31T00:33:41;23.67;;;3.25;;
64842;SDS011;51310;52.198;5.422;2023-03-31T00:36:07;18.63;;;3.40;;
64842;SDS011;51310;52.198;5.422;2023-03-31T00:38:33;18.60;;;3.28;;
64842;SDS011;51310;52.198;5.422;2023-03-31T00:40:59;12.40;;;2.80;;
64842;SDS011;51310;52.198;5.422;2023-03-31T00:43:28;14.20;;;3.15;;
64842;SDS011;51310;52.198;5.422;2023-03-31T00:48:53;12.70;;;3.35;;
64842;SDS011;51310;52.198;5.422;2023-03-31T00:51:22;11.85;;;2.88;;
64842;SDS011;51310;52.198;5.422;2023-03-31T00:53:55;14.27;;;3.47;;
64842;SDS011;51310;52.198;5.422;2023-03-31T00:56:29;18.40;;;2.80;;
64842;SDS011;51310;52.198;5.422;2023-03-31T00:59:02;16.67;;;3.15;;
64842;SDS011;51310;52.198;5.422;2023-03-31T01:01:32;11.52;;;2.90;;
64842;SDS011;51310;52.198;5.422;2023-03-31T01:04:03;17.38;;;3.30;;
64842;SDS011;51310;52.198;5.422;2023-03-31T01:06:33;14.60;;;2.53;;
64842;SDS011;51310;52.198;5.422;2023-03-31T01:09:11;15.00;;;2.65;;
64842;SDS011;51310;52.198;5.422;2023-03-31T01:11:40;16.13;;;2.92;;
64842;SDS011;51310;52.198;5.422;2023-03-31T01:14:10;11.82;;;2.88;;
64842;SDS011;51310;52.198;5.422;2023-03-31T01:16:36;11.17;;;2.40;;
64842;SDS011;51310;52.198;5.422;2023-03-31T01:19:03;16.83;;;2.72;;
64842;SDS011;51310;52.198;5.422;2023-03-31T01:42:20;8.00;;;2.70;;
64842;SDS011;51310;52.198;5.422;2023-03-31T01:45:27;14.98;;;3.20;;
64842;SDS011;51310;52.198;5.422;2023-03-31T01:48:36;10.85;;;2.38;;
64842;SDS011;51310;52.198;5.422;2023-03-31T01:55:08;14.35;;;3.20;;
64842;SDS011;51310;52.198;5.422;2023-03-31T01:57:40;10.40;;;3.35;;
64842;SDS011;51310;52.198;5.422;2023-03-31T02:00:36;12.68;;;3.90;;
64842;SDS011;51310;52.198;5.422;2023-03-31T02:05:42;11.25;;;3.25;;
64842;SDS011;51310;52.198;5.422;2023-03-31T02:08:16;14.82;;;3.20;;
64842;SDS011;51310;52.198;5.422;2023-03-31T02:10:51;15.23;;;3.63;;
64842;SDS011;51310;52.198;5.422;2023-03-31T02:13:19;14.88;;;4.25;;
64842;SDS011;51310;52.198;5.422;2023-03-31T02:15:49;9.43;;;3.50;;
64842;SDS011;51310;52.198;5.422;2023-03-31T02:18:22;12.60;;;3.85;;
64842;SDS011;51310;52.198;5.422;2023-03-31T02:20:54;10.48;;;3.75;;
64842;SDS011;51310;52.198;5.422;2023-03-31T02:23:24;15.98;;;4.28;;
64842;SDS011;51310;52.198;5.422;2023-03-31T02:28:36;12.90;;;4.15;;
64842;SDS011;51310;52.198;5.422;2023-03-31T02:31:07;14.05;;;3.95;;
64842;SDS011;51310;52.198;5.422;2023-03-31T02:34:00;14.55;;;4.10;;
64842;SDS011;51310;52.198;5.422;2023-03-31T02:36:26;11.48;;;4.00;;
64842;SDS011;51310;52.198;5.422;2023-03-31T02:38:54;11.90;;;4.28;;
64842;SDS011;51310;52.198;5.422;2023-03-31T02:41:29;14.60;;;4.15;;
64842;SDS011;51310;52.198;5.422;2023-03-31T02:43:55;13.48;;;3.70;;
64842;SDS011;51310;52.198;5.422;2023-03-31T02:46:20;14.80;;;4.43;;
64842;SDS011;51310;52.198;5.422;2023-03-31T02:48:47;17.48;;;4.10;;
64842;SDS011;51310;52.198;5.422;2023-03-31T03:00:46;11.07;;;4.03;;
64842;SDS011;51310;52.198;5.422;2023-03-31T03:04:13;11.15;;;3.45;;
64842;SDS011;51310;52.198;5.422;2023-03-31T03:06:53;14.45;;;4.65;;
64842;SDS011;51310;52.198;5.422;2023-03-31T03:09:35;13.55;;;4.00;;
64842;SDS011;51310;52.198;5.422;2023-03-31T03:12:27;13.45;;;3.97;;
64842;SDS011;51310;52.198;5.422;2023-03-31T03:15:24;20.23;;;3.97;;
64842;SDS011;51310;52.198;5.422;2023-03-31T03:17:57;19.98;;;4.10;;
64842;SDS011;51310;52.198;5.422;2023-03-31T03:20:23;11.32;;;3.45;;
64842;SDS011;51310;52.198;5.422;2023-03-31T03:22:49;11.60;;;3.67;;
64842;SDS011;51310;52.198;5.422;2023-03-31T03:25:15;15.60;;;3.83;;
64842;SDS011;51310;52.198;5.422;2023-03-31T03:27:42;9.82;;;2.97;;
64842;SDS011;51310;52.198;5.422;2023-03-31T03:30:09;13.73;;;3.70;;
64842;SDS011;51310;52.198;5.422;2023-03-31T03:32:37;12.15;;;2.90;;
64842;SDS011;51310;52.198;5.422;2023-03-31T03:35:04;13.10;;;3.50;;
64842;SDS011;51310;52.198;5.422;2023-03-31T03:37:31;17.35;;;3.45;;
64842;SDS011;51310;52.198;5.422;2023-03-31T03:39:58;17.90;;;3.58;;
64842;SDS011;51310;52.198;5.422;2023-03-31T03:42:24;11.73;;;3.10;;
64842;SDS011;51310;52.198;5.422;2023-03-31T03:44:50;17.80;;;3.70;;
64842;SDS011;51310;52.198;5.422;2023-03-31T03:47:15;10.17;;;2.57;;
64842;SDS011;51310;52.198;5.422;2023-03-31T03:49:41;15.57;;;2.40;;
64842;SDS011;51310;52.198;5.422;2023-03-31T03:52:07;13.23;;;3.23;;
64842;SDS011;51310;52.198;5.422;2023-03-31T03:54:33;13.97;;;2.27;;
64842;SDS011;51310;52.198;5.422;2023-03-31T03:56:58;13.90;;;3.57;;
64842;SDS011;51310;52.198;5.422;2023-03-31T03:59:24;11.77;;;3.43;;
64842;SDS011;51310;52.198;5.422;2023-03-31T04:01:50;15.50;;;2.60;;
64842;SDS011;51310;52.198;5.422;2023-03-31T04:04:16;9.73;;;2.35;;
64842;SDS011;51310;52.198;5.422;2023-03-31T04:06:42;15.23;;;3.10;;
64842;SDS011;51310;52.198;5.422;2023-03-31T04:09:08;11.13;;;2.70;;
64842;SDS011;51310;52.198;5.422;2023-03-31T04:11:34;14.20;;;2.53;;
64842;SDS011;51310;52.198;5.422;2023-03-31T04:14:00;14.67;;;2.83;;
64842;SDS011;51310;52.198;5.422;2023-03-31T04:16:26;12.05;;;2.50;;
64842;SDS011;51310;52.198;5.422;2023-03-31T04:18:52;12.35;;;2.65;;
64842;SDS011;51310;52.198;5.422;2023-03-31T04:21:21;11.27;;;2.50;;
64842;SDS011;51310;52.198;5.422;2023-03-31T04:23:48;10.40;;;2.38;;
64842;SDS011;51310;52.198;5.422;2023-03-31T04:26:23;11.27;;;2.88;;
64842;SDS011;51310;52.198;5.422;2023-03-31T04:28:58;10.25;;;2.70;;
64842;SDS011;51310;52.198;5.422;2023-03-31T04:31:26;11.60;;;2.30;;
64842;SDS011;51310;52.198;5.422;2023-03-31T04:33:54;9.13;;;1.80;;
64842;SDS011;51310;52.198;5.422;2023-03-31T04:36:26;11.40;;;1.93;;
64842;SDS011;51310;52.198;5.422;2023-03-31T04:38:56;6.05;;;1.50;;
64842;SDS011;51310;52.198;5.422;2023-03-31T04:41:22;9.07;;;1.48;;
64842;SDS011;51310;52.198;5.422;2023-03-31T04:43:51;7.07;;;1.75;;
64842;SDS011;51310;52.198;5.422;2023-03-31T04:46:17;9.10;;;2.45;;
64842;SDS011;51310;52.198;5.422;2023-03-31T04:48:43;11.43;;;1.95;;
64842;SDS011;51310;52.198;5.422;2023-03-31T04:51:09;8.77;;;1.88;;
64842;SDS011;51310;52.198;5.422;2023-03-31T04:53:39;8.55;;;1.88;;
64842;SDS011;51310;52.198;5.422;2023-03-31T04:56:05;6.67;;;1.80;;
64842;SDS011;51310;52.198;5.422;2023-03-31T04:58:31;7.90;;;2.00;;
64842;SDS011;51310;52.198;5.422;2023-03-31T05:00:57;4.80;;;1.67;;
64842;SDS011;51310;52.198;5.422;2023-03-31T05:03:23;8.50;;;2.47;;
64842;SDS011;51310;52.198;5.422;2023-03-31T05:05:49;12.30;;;2.70;;
64842;SDS011;51310;52.198;5.422;2023-03-31T05:08:14;9.63;;;2.60;;
64842;SDS011;51310;52.198;5.422;2023-03-31T05:10:40;9.63;;;2.47;;
64842;SDS011;51310;52.198;5.422;2023-03-31T05:13:07;13.77;;;2.93;;
64842;SDS011;51310;52.198;5.422;2023-03-31T05:15:36;12.75;;;3.63;;
64842;SDS011;51310;52.198;5.422;2023-03-31T05:18:03;11.50;;;3.85;;
64842;SDS011;51310;52.198;5.422;2023-03-31T05:20:29;13.88;;;4.00;;
64842;SDS011;51310;52.198;5.422;2023-03-31T05:22:55;12.30;;;3.90;;
64842;SDS011;51310;52.198;5.422;2023-03-31T05:25:21;12.83;;;3.70;;
64842;SDS011;51310;52.198;5.422;2023-03-31T05:27:47;12.90;;;3.25;;
64842;SDS011;51310;52.198;5.422;2023-03-31T05:30:14;9.80;;;3.20;;
64842;SDS011;51310;52.198;5.422;2023-03-31T05:32:42;12.82;;;3.40;;
64842;SDS011;51310;52.198;5.422;2023-03-31T05:35:08;9.40;;;3.50;;
64842;SDS011;51310;52.198;5.422;2023-03-31T05:37:35;17.13;;;3.60;;
64842;SDS011;51310;52.198;5.422;2023-03-31T05:40:01;12.10;;;2.90;;
64842;SDS011;51310;52.198;5.422;2023-03-31T05:42:29;9.98;;;3.10;;
64842;SDS011;51310;52.198;5.422;2023-03-31T05:44:55;8.10;;;3.17;;
64842;SDS011;51310;52.198;5.422;2023-03-31T05:47:21;15.35;;;3.50;;
64842;SDS011;51310;52.198;5.422;2023-03-31T05:49:47;7.95;;;3.08;;
64842;SDS011;51310;52.198;5.422;2023-03-31T05:52:13;12.95;;;3.50;;
64842;SDS011;51310;52.198;5.422;2023-03-31T05:54:38;11.85;;;3.45;;
64842;SDS011;51310;52.198;5.422;2023-03-31T05:57:05;14.18;;;2.92;;
64842;SDS011;51310;52.198;5.422;2023-03-31T05:59:31;14.50;;;3.10;;
64842;SDS011;51310;52.198;5.422;2023-03-31T06:01:59;11.27;;;2.65;;
64842;SDS011;51310;52.198;5.422;2023-03-31T06:04:25;13.30;;;3.05;;
64842;SDS011;51310;52.198;5.422;2023-03-31T06:06:51;9.77;;;2.90;;
64842;SDS011;51310;52.198;5.422;2023-03-31T06:09:18;12.00;;;2.85;;
64842;SDS011;51310;52.198;5.422;2023-03-31T06:11:44;10.35;;;2.50;;
64842;SDS011;51310;52.198;5.422;2023-03-31T06:14:10;11.00;;;2.70;;
64842;SDS011;51310;52.198;5.422;2023-03-31T06:16:36;11.98;;;2.75;;
64842;SDS011;51310;52.198;5.422;2023-03-31T06:19:03;13.13;;;2.72;;
64842;SDS011;51310;52.198;5.422;2023-03-31T06:21:28;9.40;;;2.80;;
64842;SDS011;51310;52.198;5.422;2023-03-31T06:23:54;12.85;;;2.55;;
64842;SDS011;51310;52.198;5.422;2023-03-31T06:26:22;10.83;;;2.57;;
64842;SDS011;51310;52.198;5.422;2023-03-31T06:28:48;11.30;;;2.65;;
64842;SDS011;51310;52.198;5.422;2023-03-31T06:31:15;9.75;;;2.45;;
64842;SDS011;51310;52.198;5.422;2023-03-31T06:33:48;9.20;;;2.55;;
64842;SDS011;51310;52.198;5.422;2023-03-31T06:36:14;8.00;;;2.63;;
64842;SDS011;51310;52.198;5.422;2023-03-31T06:38:44;10.80;;;2.17;;
64842;SDS011;51310;52.198;5.422;2023-03-31T06:41:11;11.17;;;2.13;;
64842;SDS011;51310;52.198;5.422;2023-03-31T06:43:39;10.20;;;2.55;;
64842;SDS011;51310;52.198;5.422;2023-03-31T06:46:05;8.98;;;1.98;;
64842;SDS011;51310;52.198;5.422;2023-03-31T06:48:31;8.05;;;1.95;;
64842;SDS011;51310;52.198;5.422;2023-03-31T06:51:01;6.93;;;1.85;;
64842;SDS011;51310;52.198;5.422;2023-03-31T06:53:28;6.25;;;1.85;;
64842;SDS011;51310;52.198;5.422;2023-03-31T06:55:54;6.55;;;1.80;;
64842;SDS011;51310;52.198;5.422;2023-03-31T06:58:20;6.18;;;1.83;;
64842;SDS011;51310;52.198;5.422;2023-03-31T07:00:46;8.25;;;1.80;;
64842;SDS011;51310;52.198;5.422;2023-03-31T07:03:12;7.97;;;1.67;;
64842;SDS011;51310;52.198;5.422;2023-03-31T07:05:42;6.40;;;1.52;;
64842;SDS011;51310;52.198;5.422;2023-03-31T07:08:16;7.82;;;1.73;;
64842;SDS011;51310;52.198;5.422;2023-03-31T07:10:43;10.65;;;2.17;;
64842;SDS011;51310;52.198;5.422;2023-03-31T07:13:16;9.13;;;1.67;;
64842;SDS011;51310;52.198;5.422;2023-03-31T07:15:43;5.72;;;1.42;;
64842;SDS011;51310;52.198;5.422;2023-03-31T07:18:12;6.60;;;1.20;;
64842;SDS011;51310;52.198;5.422;2023-03-31T07:20:39;7.35;;;1.00;;
64842;SDS011;51310;52.198;5.422;2023-03-31T07:23:06;5.22;;;1.17;;
64842;SDS011;51310;52.198;5.422;2023-03-31T07:25:32;4.38;;;1.10;;
64842;SDS011;51310;52.198;5.422;2023-03-31T07:27:59;7.35;;;1.30;;
64842;SDS011;51310;52.198;5.422;2023-03-31T07:30:26;6.63;;;1.00;;
64842;SDS011;51310;52.198;5.422;2023-03-31T07:32:52;5.13;;;1.17;;
64842;SDS011;51310;52.198;5.422;2023-03-31T07:35:18;4.10;;;1.10;;
64842;SDS011;51310;52.198;5.422;2023-03-31T07:37:46;5.07;;;1.33;;
64842;SDS011;51310;52.198;5.422;2023-03-31T07:40:16;6.10;;;1.30;;
64842;SDS011;51310;52.198;5.422;2023-03-31T07:42:46;5.28;;;1.55;;
64842;SDS011;51310;52.198;5.422;2023-03-31T07:45:13;5.68;;;1.65;;
64842;SDS011;51310;52.198;5.422;2023-03-31T07:47:41;5.32;;;1.38;;
64842;SDS011;51310;52.198;5.422;2023-03-31T07:50:07;6.72;;;1.48;;
64842;SDS011;51310;52.198;5.422;2023-03-31T07:52:34;9.35;;;1.30;;
64842;SDS011;51310;52.198;5.422;2023-03-31T07:54:59;9.32;;;1.55;;
64842;SDS011;51310;52.198;5.422;2023-03-31T07:57:25;5.57;;;1.58;;
64842;SDS011;51310;52.198;5.422;2023-03-31T07:59:51;3.78;;;1.20;;
64842;SDS011;51310;52.198;5.422;2023-03-31T08:02:17;5.07;;;1.50;;
64842;SDS011;51310;52.198;5.422;2023-03-31T08:04:43;6.40;;;1.50;;
64842;SDS011;51310;52.198;5.422;2023-03-31T08:07:11;6.90;;;1.52;;
64842;SDS011;51310;52.198;5.422;2023-03-31T08:09:38;9.63;;;1.40;;
64842;SDS011;51310;52.198;5.422;2023-03-31T08:12:04;5.33;;;1.30;;
64842;SDS011;51310;52.198;5.422;2023-03-31T08:14:31;5.07;;;1.10;;
64842;SDS011;51310;52.198;5.422;2023-03-31T08:16:57;7.33;;;1.67;;
64842;SDS011;51310;52.198;5.422;2023-03-31T08:19:24;6.50;;;1.90;;
64842;SDS011;51310;52.198;5.422;2023-03-31T08:21:51;8.50;;;1.70;;
64842;SDS011;51310;52.198;5.422;2023-03-31T08:24:17;5.25;;;1.70;;
64842;SDS011;51310;52.198;5.422;2023-03-31T08:26:43;9.40;;;1.30;;
64842;SDS011;51310;52.198;5.422;2023-03-31T08:29:10;8.10;;;1.50;;
64842;SDS011;51310;52.198;5.422;2023-03-31T08:31:35;5.27;;;1.70;;
64842;SDS011;51310;52.198;5.422;2023-03-31T08:34:01;7.07;;;1.50;;
64842;SDS011;51310;52.198;5.422;2023-03-31T08:36:27;5.95;;;1.77;;
64842;SDS011;51310;52.198;5.422;2023-03-31T08:38:53;5.78;;;1.42;;
64842;SDS011;51310;52.198;5.422;2023-03-31T08:41:29;4.80;;;1.45;;
64842;SDS011;51310;52.198;5.422;2023-03-31T08:44:04;6.70;;;1.83;;
64842;SDS011;51310;52.198;5.422;2023-03-31T08:46:38;4.43;;;1.63;;
64842;SDS011;51310;52.198;5.422;2023-03-31T08:49:06;7.00;;;2.05;;
64842;SDS011;51310;52.198;5.422;2023-03-31T08:51:40;5.57;;;1.77;;
64842;SDS011;51310;52.198;5.422;2023-03-31T08:54:15;9.73;;;2.10;;
64842;SDS011;51310;52.198;5.422;2023-03-31T08:56:57;7.15;;;2.35;;
64842;SDS011;51310;52.198;5.422;2023-03-31T08:59:26;5.20;;;1.60;;
64842;SDS011;51310;52.198;5.422;2023-03-31T09:01:58;8.30;;;2.22;;
64842;SDS011;51310;52.198;5.422;2023-03-31T09:04:53;10.63;;;2.83;;
64842;SDS011;51310;52.198;5.422;2023-03-31T09:07:25;7.55;;;2.40;;
64842;SDS011;51310;52.198;5.422;2023-03-31T09:18:42;14.68;;;2.97;;
64842;SDS011;51310;52.198;5.422;2023-03-31T09:21:12;14.60;;;3.10;;
64842;SDS011;51310;52.198;5.422;2023-03-31T09:26:40;15.82;;;4.20;;
64842;SDS011;51310;52.198;5.422;2023-03-31T09:29:23;16.38;;;3.47;;
64842;SDS011;51310;52.198;5.422;2023-03-31T09:34:54;16.00;;;3.55;;
64842;SDS011;51310;52.198;5.422;2023-03-31T09:37:45;13.55;;;3.28;;
64842;SDS011;51310;52.198;5.422;2023-03-31T09:40:20;12.57;;;3.58;;
64842;SDS011;51310;52.198;5.422;2023-03-31T09:43:07;16.92;;;4.82;;
64842;SDS011;51310;52.198;5.422;2023-03-31T09:45:53;21.67;;;4.38;;
64842;SDS011;51310;52.198;5.422;2023-03-31T09:48:24;17.10;;;4.07;;
64842;SDS011;51310;52.198;5.422;2023-03-31T09:50:58;20.50;;;4.53;;
64842;SDS011;51310;52.198;5.422;2023-03-31T09:53:48;20.23;;;3.90;;
64842;SDS011;51310;52.198;5.422;2023-03-31T09:59:11;15.90;;;4.07;;
64842;SDS011;51310;52.198;5.422;2023-03-31T10:01:55;12.63;;;3.03;;
64842;SDS011;51310;52.198;5.422;2023-03-31T10:04:27;17.90;;;3.85;;
64842;SDS011;51310;52.198;5.422;2023-03-31T10:06:57;17.33;;;4.25;;
64842;SDS011;51310;52.198;5.422;2023-03-31T10:09:26;20.05;;;4.40;;
64842;SDS011;51310;52.198;5.422;2023-03-31T10:12:02;18.50;;;4.88;;
64842;SDS011;51310;52.198;5.422;2023-03-31T10:14:38;21.58;;;4.05;;
64842;SDS011;51310;52.198;5.422;2023-03-31T10:17:13;14.50;;;4.07;;
64842;SDS011;51310;52.198;5.422;2023-03-31T10:19:53;23.63;;;4.07;;
64842;SDS011;51310;52.198;5.422;2023-03-31T10:25:03;13.30;;;3.03;;
64842;SDS011;51310;52.198;5.422;2023-03-31T10:27:40;16.05;;;3.63;;
64842;SDS011;51310;52.198;5.422;2023-03-31T10:30:10;14.20;;;3.28;;
64842;SDS011;51310;52.198;5.422;2023-03-31T10:32:41;15.88;;;3.58;;
64842;SDS011;51310;52.198;5.422;2023-03-31T10:37:47;10.98;;;2.88;;
64842;SDS011;51310;52.198;5.422;2023-03-31T10:40:19;13.50;;;3.70;;
64842;SDS011;51310;52.198;5.422;2023-03-31T10:42:57;8.43;;;2.40;;
64842;SDS011;51310;52.198;5.422;2023-03-31T10:45:53;10.07;;;2.22;;
64842;SDS011;51310;52.198;5.422;2023-03-31T10:50:59;16.88;;;4.13;;
64842;SDS011;51310;52.198;5.422;2023-03-31T10:53:45;10.73;;;3.13;;
64842;SDS011;51310;52.198;5.422;2023-03-31T10:59:25;11.95;;;3.05;;
64842;SDS011;51310;52.198;5.422;2023-03-31T11:17:03;13.27;;;3.13;;
64842;SDS011;51310;52.198;5.422;2023-03-31T11:22:37;15.63;;;2.75;;
64842;SDS011;51310;52.198;5.422;2023-03-31T11:25:28;14.00;;;3.20;;
64842;SDS011;51310;52.198;5.422;2023-03-31T11:28:03;11.47;;;2.97;;
64842;SDS011;51310;52.198;5.422;2023-03-31T11:34:56;14.95;;;3.10;;
64842;SDS011;51310;52.198;5.422;2023-03-31T11:40:35;9.15;;;2.42;;
64842;SDS011;51310;52.198;5.422;2023-03-31T11:46:17;11.88;;;3.28;;
64842;SDS011;51310;52.198;5.422;2023-03-31T11:54:09;8.95;;;2.38;;
64842;SDS011;51310;52.198;5.422;2023-03-31T11:56:48;13.23;;;3.00;;
64842;SDS011;51310;52.198;5.422;2023-03-31T11:59:15;10.32;;;2.60;;
64842;SDS011;51310;52.198;5.422;2023-03-31T12:01:49;14.05;;;2.42;;
64842;SDS011;51310;52.198;5.422;2023-03-31T12:04:31;12.05;;;2.75;;
64842;SDS011;51310;52.198;5.422;2023-03-31T12:12:31;13.30;;;2.93;;
64842;SDS011;51310;52.198;5.422;2023-03-31T12:15:26;11.65;;;3.35;;
64842;SDS011;51310;52.198;5.422;2023-03-31T12:18:19;14.40;;;2.70;;
64842;SDS011;51310;52.198;5.422;2023-03-31T12:20:51;12.68;;;2.63;;
64842;SDS011;51310;52.198;5.422;2023-03-31T12:23:23;14.48;;;2.40;;
64842;SDS011;51310;52.198;5.422;2023-03-31T12:28:54;11.00;;;3.05;;
64842;SDS011;51310;52.198;5.422;2023-03-31T12:31:28;13.68;;;2.50;;
64842;SDS011;51310;52.198;5.422;2023-03-31T12:45:29;8.70;;;2.05;;
64842;SDS011;51310;52.198;5.422;2023-03-31T12:54:49;9.50;;;2.55;;
64842;SDS011;51310;52.198;5.422;2023-03-31T12:57:20;10.17;;;2.63;;
64842;SDS011;51310;52.198;5.422;2023-03-31T13:06:01;9.63;;;2.47;;
64842;SDS011;51310;52.198;5.422;2023-03-31T13:08:52;13.38;;;2.88;;
64842;SDS011;51310;52.198;5.422;2023-03-31T13:14:05;11.88;;;2.40;;
64842;SDS011;51310;52.198;5.422;2023-03-31T13:16:34;9.97;;;2.73;;
64842;SDS011;51310;52.198;5.422;2023-03-31T13:19:00;11.70;;;3.00;;
64842;SDS011;51310;52.198;5.422;2023-03-31T13:21:26;12.45;;;2.90;;
64842;SDS011;51310;52.198;5.422;2023-03-31T13:23:52;6.50;;;2.55;;
64842;SDS011;51310;52.198;5.422;2023-03-31T13:26:34;11.07;;;2.38;;
64842;SDS011;51310;52.198;5.422;2023-03-31T13:29:39;11.00;;;2.47;;
64842;SDS011;51310;52.198;5.422;2023-03-31T13:32:17;13.95;;;2.50;;
64842;SDS011;51310;52.198;5.422;2023-03-31T13:46:23;8.65;;;2.10;;
64842;SDS011;51310;52.198;5.422;2023-03-31T13:52:48;14.30;;;3.58;;
64842;SDS011;51310;52.198;5.422;2023-03-31T14:06:53;11.05;;;2.22;;
64842;SDS011;51310;52.198;5.422;2023-03-31T14:14:52;11.40;;;2.90;;
64842;SDS011;51310;52.198;5.422;2023-03-31T14:17:18;7.22;;;1.67;;
64842;SDS011;51310;52.198;5.422;2023-03-31T14:32:19;7.15;;;1.90;;
64842;SDS011;51310;52.198;5.422;2023-03-31T14:35:23;10.13;;;2.58;;
64842;SDS011;51310;52.198;5.422;2023-03-31T14:37:57;12.32;;;1.85;;
64842;SDS011;51310;52.198;5.422;2023-03-31T14:40:28;7.40;;;1.90;;
64842;SDS011;51310;52.198;5.422;2023-03-31T14:42:54;7.22;;;1.88;;
64842;SDS011;51310;52.198;5.422;2023-03-31T14:45:21;7.83;;;1.93;;
64842;SDS011;51310;52.198;5.422;2023-03-31T14:48:16;5.15;;;1.70;;
64842;SDS011;51310;52.198;5.422;2023-03-31T14:50:41;6.63;;;1.92;;
64842;SDS011;51310;52.198;5.422;2023-03-31T14:53:14;6.07;;;1.52;;
64842;SDS011;51310;52.198;5.422;2023-03-31T14:55:42;8.63;;;1.98;;
64842;SDS011;51310;52.198;5.422;2023-03-31T14:58:12;8.52;;;1.90;;
64842;SDS011;51310;52.198;5.422;2023-03-31T15:00:51;7.53;;;2.17;;
64842;SDS011;51310;52.198;5.422;2023-03-31T15:03:18;7.68;;;2.90;;
64842;SDS011;51310;52.198;5.422;2023-03-31T15:05:44;8.67;;;1.97;;
64842;SDS011;51310;52.198;5.422;2023-03-31T15:08:11;3.55;;;1.50;;
64842;SDS011;51310;52.198;5.422;2023-03-31T15:10:48;8.23;;;1.83;;
64842;SDS011;51310;52.198;5.422;2023-03-31T15:19:15;5.95;;;1.73;;
64842;SDS011;51310;52.198;5.422;2023-03-31T15:21:45;6.30;;;2.47;;
64842;SDS011;51310;52.198;5.422;2023-03-31T15:24:28;5.75;;;1.73;;
64842;SDS011;51310;52.198;5.422;2023-03-31T15:27:08;8.70;;;1.60;;
64842;SDS011;51310;52.198;5.422;2023-03-31T15:30:13;7.82;;;1.65;;
64842;SDS011;51310;52.198;5.422;2023-03-31T15:32:48;5.00;;;1.73;;
64842;SDS011;51310;52.198;5.422;2023-03-31T15:35:21;9.98;;;2.15;;
64842;SDS011;51310;52.198;5.422;2023-03-31T15:37:58;6.20;;;1.50;;
64842;SDS011;51310;52.198;5.422;2023-03-31T15:40:27;5.22;;;2.22;;
64842;SDS011;51310;52.198;5.422;2023-03-31T15:42:57;4.32;;;1.30;;
64842;SDS011;51310;52.198;5.422;2023-03-31T15:48:17;4.82;;;1.80;;
64842;SDS011;51310;52.198;5.422;2023-03-31T15:51:04;7.15;;;1.55;;
64842;SDS011;51310;52.198;5.422;2023-03-31T15:53:46;4.65;;;1.30;;
64842;SDS011;51310;52.198;5.422;2023-03-31T15:56:24;4.53;;;1.40;;
64842;SDS011;51310;52.198;5.422;2023-03-31T15:59:00;5.67;;;1.30;;
64842;SDS011;51310;52.198;5.422;2023-03-31T16:01:29;6.88;;;1.88;;
64842;SDS011;51310;52.198;5.422;2023-03-31T16:04:11;6.85;;;2.35;;
64842;SDS011;51310;52.198;5.422;2023-03-31T16:12:40;4.93;;;1.60;;
64842;SDS011;51310;52.198;5.422;2023-03-31T16:15:15;4.97;;;1.83;;
64842;SDS011;51310;52.198;5.422;2023-03-31T16:17:50;10.55;;;2.13;;
64842;SDS011;51310;52.198;5.422;2023-03-31T16:20:23;4.68;;;1.90;;
64842;SDS011;51310;52.198;5.422;2023-03-31T16:23:01;3.42;;;1.50;;
64842;SDS011;51310;52.198;5.422;2023-03-31T16:25:38;4.77;;;1.70;;
64842;SDS011;51310;52.198;5.422;2023-03-31T16:28:05;5.80;;;2.05;;
64842;SDS011;51310;52.198;5.422;2023-03-31T16:30:40;5.50;;;2.70;;
64842;SDS011;51310;52.198;5.422;2023-03-31T16:35:40;4.75;;;1.80;;
64842;SDS011;51310;52.198;5.422;2023-03-31T16:38:12;5.72;;;1.83;;
64842;SDS011;51310;52.198;5.422;2023-03-31T16:40:43;4.80;;;1.87;;
64842;SDS011;51310;52.198;5.422;2023-03-31T16:45:42;5.22;;;1.83;;
64842;SDS011;51310;52.198;5.422;2023-03-31T16:48:20;4.35;;;1.92;;
64842;SDS011;51310;52.198;5.422;2023-03-31T16:50:49;5.65;;;1.70;;
64842;SDS011;51310;52.198;5.422;2023-03-31T16:53:22;3.97;;;1.50;;
64842;SDS011;51310;52.198;5.422;2023-03-31T16:55:54;4.45;;;1.98;;
64842;SDS011;51310;52.198;5.422;2023-03-31T16:58:21;5.43;;;2.80;;
64842;SDS011;51310;52.198;5.422;2023-03-31T17:00:52;5.80;;;3.47;;
64842;SDS011;51310;52.198;5.422;2023-03-31T17:03:18;5.82;;;3.90;;
64842;SDS011;51310;52.198;5.422;2023-03-31T17:05:46;10.02;;;3.60;;
64842;SDS011;51310;52.198;5.422;2023-03-31T17:08:16;5.32;;;2.58;;
64842;SDS011;51310;52.198;5.422;2023-03-31T17:10:54;6.88;;;3.40;;
64842;SDS011;51310;52.198;5.422;2023-03-31T17:13:29;5.40;;;3.75;;
64842;SDS011;51310;52.198;5.422;2023-03-31T17:15:56;5.37;;;3.40;;
64842;SDS011;51310;52.198;5.422;2023-03-31T17:18:23;7.70;;;4.50;;
64842;SDS011;51310;52.198;5.422;2023-03-31T17:20:50;8.20;;;5.53;;
64842;SDS011;51310;52.198;5.422;2023-03-31T17:23:17;4.63;;;2.70;;
64842;SDS011;51310;52.198;5.422;2023-03-31T17:25:47;4.85;;;3.28;;
64842;SDS011;51310;52.198;5.422;2023-03-31T17:28:16;6.50;;;3.20;;
64842;SDS011;51310;52.198;5.422;2023-03-31T17:30:42;5.25;;;2.70;;
64842;SDS011;51310;52.198;5.422;2023-03-31T17:33:09;7.80;;;5.40;;
64842;SDS011;51310;52.198;5.422;2023-03-31T17:35:35;5.07;;;3.03;;
64842;SDS011;51310;52.198;5.422;2023-03-31T17:38:02;5.30;;;2.85;;
64842;SDS011;51310;52.198;5.422;2023-03-31T17:40:28;5.72;;;3.53;;
64842;SDS011;51310;52.198;5.422;2023-03-31T17:42:57;6.95;;;4.68;;
64842;SDS011;51310;52.198;5.422;2023-03-31T17:45:26;4.33;;;3.23;;
64842;SDS011;51310;52.198;5.422;2023-03-31T17:47:56;5.43;;;2.78;;
64842;SDS011;51310;52.198;5.422;2023-03-31T17:50:23;6.75;;;2.85;;
64842;SDS011;51310;52.198;5.422;2023-03-31T17:52:51;5.53;;;2.55;;
64842;SDS011;51310;52.198;5.422;2023-03-31T17:55:17;4.20;;;2.40;;
64842;SDS011;51310;52.198;5.422;2023-03-31T17:57:43;6.05;;;2.70;;
64842;SDS011;51310;52.198;5.422;2023-03-31T18:00:10;5.60;;;3.30;;
64842;SDS011;51310;52.198;5.422;2023-03-31T18:02:39;3.83;;;2.38;;
64842;SDS011;51310;52.198;5.422;2023-03-31T18:05:06;7.45;;;4.22;;
64842;SDS011;51310;52.198;5.422;2023-03-31T18:07:33;5.15;;;4.13;;
64842;SDS011;51310;52.198;5.422;2023-03-31T18:10:00;4.10;;;3.20;;
64842;SDS011;51310;52.198;5.422;2023-03-31T18:12:29;8.20;;;5.45;;
64842;SDS011;51310;52.198;5.422;2023-03-31T18:14:56;5.72;;;4.68;;
64842;SDS011;51310;52.198;5.422;2023-03-31T18:17:22;7.47;;;5.07;;
64842;SDS011;51310;52.198;5.422;2023-03-31T18:19:48;6.75;;;3.90;;
64842;SDS011;51310;52.198;5.422;2023-03-31T18:22:14;5.53;;;3.87;;
64842;SDS011;51310;52.198;5.422;2023-03-31T18:24:40;6.93;;;5.17;;
64842;SDS011;51310;52.198;5.422;2023-03-31T18:27:06;7.03;;;5.00;;
64842;SDS011;51310;52.198;5.422;2023-03-31T18:29:31;5.60;;;4.33;;